Time;durP1;ratioP1;P1;durP2;ratioP2;P2;SDS_P1;SDS_P2;PMS_P1;PMS_P2;Temp;Humidity;BMP_temperature;BMP_pressure;BME280_temperature;BME280_humidity;BME280_pressure;Samples;Min_cycle;Max_cycle;Signal;HPM_P1;HPM_P2
2022/07/06 00:01:37;;;;;;;0.90;0.75;;;19.50;49.80;;;;;;4943966;28;20031;-75
2022/07/06 00:04:04;;;;;;;0.95;0.80;;;19.50;49.90;;;;;;4925518;28;20062;-74
2022/07/06 00:06:30;;;;;;;1.00;0.90;;;19.40;49.80;;;;;;4940426;28;20074;-75
2022/07/06 00:08:56;;;;;;;1.10;0.90;;;19.40;50.00;;;;;;4925002;29;20055;-75
2022/07/06 00:11:22;;;;;;;1.00;0.90;;;19.40;50.10;;;;;;4936575;28;20066;-75
2022/07/06 00:13:48;;;;;;;0.98;0.70;;;19.30;50.00;;;;;;4934863;28;20035;-74
2022/07/06 00:16:14;;;;;;;1.20;1.10;;;19.30;50.10;;;;;;4941728;28;20046;-75
2022/07/06 00:18:40;;;;;;;1.08;0.98;;;19.20;50.00;;;;;;4944072;28;20083;-75
2022/07/06 00:21:06;;;;;;;1.98;1.15;;;19.20;50.10;;;;;;4943349;28;20544;-75
2022/07/06 00:23:32;;;;;;;1.00;0.90;;;19.20;50.20;;;;;;4924723;28;20393;-75
2022/07/06 00:25:58;;;;;;;1.42;0.90;;;19.10;50.20;;;;;;4939808;28;20501;-75
2022/07/06 00:28:24;;;;;;;1.40;1.10;;;19.10;50.40;;;;;;4941820;28;20574;-75
2022/07/06 00:30:50;;;;;;;0.90;0.90;;;19.10;50.40;;;;;;4943301;28;20020;-76
2022/07/06 00:33:16;;;;;;;1.23;1.05;;;19.00;50.40;;;;;;4941478;28;20485;-75
2022/07/06 00:35:42;;;;;;;0.73;0.73;;;19.00;50.50;;;;;;4924726;29;20588;-76
2022/07/06 00:38:08;;;;;;;1.02;0.90;;;18.90;50.40;;;;;;4917660;29;20061;-76
2022/07/06 00:40:34;;;;;;;1.95;1.00;;;18.90;50.50;;;;;;4918386;28;20063;-75
2022/07/06 00:43:00;;;;;;;1.00;0.90;;;18.90;51.20;;;;;;4916470;28;20027;-75
2022/07/06 00:45:26;;;;;;;0.82;0.82;;;18.80;50.50;;;;;;4920012;28;20133;-75
2022/07/06 00:47:52;;;;;;;1.08;0.63;;;18.80;50.60;;;;;;4920854;28;20071;-75
2022/07/06 00:50:22;;;;;;;1.30;1.17;;;18.80;50.70;;;;;;4931473;28;20027;-75
2022/07/06 00:52:55;;;;;;;0.90;0.80;;;18.70;50.60;;;;;;4936456;28;20066;-74
2022/07/06 00:55:24;;;;;;;0.90;0.90;;;18.70;50.70;;;;;;4933055;28;20055;-75
2022/07/06 00:57:51;;;;;;;0.98;0.90;;;18.60;50.60;;;;;;4936074;28;20035;-75
2022/07/06 01:00:20;;;;;;;1.00;0.90;;;18.60;50.70;;;;;;4919357;28;20106;-74
2022/07/06 01:02:47;;;;;;;1.20;0.90;;;18.60;50.70;;;;;;4936046;28;20039;-75
2022/07/06 01:05:15;;;;;;;1.25;0.90;;;18.50;50.60;;;;;;4921043;28;20043;-75
2022/07/06 01:07:43;;;;;;;1.70;0.80;;;18.50;50.70;;;;;;4937685;28;20028;-75
2022/07/06 01:10:11;;;;;;;0.85;0.77;;;18.40;50.70;;;;;;4915651;29;20039;-75
2022/07/06 01:12:39;;;;;;;0.80;0.80;;;18.40;50.70;;;;;;4931355;28;20565;-74
2022/07/06 01:15:12;;;;;;;1.10;1.00;;;18.40;50.90;;;;;;4904079;28;20027;-76
2022/07/06 01:17:42;;;;;;;1.05;0.82;;;18.30;50.80;;;;;;4918755;28;20039;-74
2022/07/06 01:20:09;;;;;;;0.80;0.80;;;18.30;50.90;;;;;;4936809;28;20040;-75
2022/07/06 01:22:35;;;;;;;1.63;0.90;;;18.20;50.70;;;;;;4933201;28;20090;-74
2022/07/06 01:25:01;;;;;;;0.68;0.68;;;18.20;50.80;;;;;;4919408;29;20091;-75
2022/07/06 01:27:27;;;;;;;1.65;1.55;;;18.20;50.90;;;;;;4921977;29;20031;-74
2022/07/06 01:29:53;;;;;;;2.22;0.93;;;18.20;51.00;;;;;;4919143;28;20038;-74
2022/07/06 01:32:19;;;;;;;0.88;0.88;;;18.10;51.00;;;;;;4935609;28;20027;-76
2022/07/06 01:34:45;;;;;;;1.00;1.00;;;18.10;51.00;;;;;;4917957;28;20045;-76
2022/07/06 01:37:11;;;;;;;1.00;0.90;;;18.00;50.90;;;;;;4920870;29;21546;-74
2022/07/06 01:39:36;;;;;;;1.02;0.93;;;18.00;51.00;;;;;;4919675;28;20120;-76
2022/07/06 01:42:05;;;;;;;0.82;0.80;;;18.00;51.10;;;;;;4934942;28;20648;-76
2022/07/06 01:44:31;;;;;;;1.10;1.00;;;17.90;51.00;;;;;;4920734;28;20048;-75
2022/07/06 01:46:59;;;;;;;1.33;0.90;;;17.90;51.10;;;;;;4922906;29;20039;-74
2022/07/06 01:49:25;;;;;;;0.88;0.63;;;17.90;51.20;;;;;;4908907;28;20092;-75
2022/07/06 01:51:51;;;;;;;1.10;1.00;;;17.80;51.10;;;;;;4936678;28;20030;-76
2022/07/06 01:54:17;;;;;;;1.00;0.90;;;17.80;51.20;;;;;;4923471;28;20027;-74
2022/07/06 01:56:42;;;;;;;1.00;0.82;;;17.80;51.30;;;;;;4921094;29;20508;-76
2022/07/06 01:59:09;;;;;;;1.00;0.90;;;17.70;51.20;;;;;;4921794;29;20031;-75
2022/07/06 02:01:36;;;;;;;0.93;0.90;;;17.70;51.30;;;;;;4921909;29;20032;-74
2022/07/06 02:04:02;;;;;;;0.73;0.73;;;17.70;51.40;;;;;;4917158;28;20042;-75
2022/07/06 02:06:28;;;;;;;0.77;0.70;;;17.60;51.30;;;;;;4942235;28;20074;-74
2022/07/06 02:08:54;;;;;;;1.17;0.80;;;17.60;51.40;;;;;;4941533;28;22236;-75
2022/07/06 02:11:20;;;;;;;0.90;0.82;;;17.60;51.40;;;;;;4943707;28;20106;-75
2022/07/06 02:13:46;;;;;;;1.27;1.15;;;17.60;51.50;;;;;;4928067;28;20039;-74
2022/07/06 02:16:13;;;;;;;3.10;1.17;;;17.50;51.40;;;;;;4939865;28;20054;-75
2022/07/06 02:18:39;;;;;;;2.65;0.68;;;17.50;51.40;;;;;;4928826;28;20027;-76
2022/07/06 02:21:05;;;;;;;1.02;0.98;;;17.50;51.50;;;;;;4933949;28;20035;-75
2022/07/06 02:23:31;;;;;;;1.02;0.93;;;17.50;51.60;;;;;;4946235;28;20039;-75
2022/07/06 02:25:58;;;;;;;0.93;0.88;;;17.50;51.70;;;;;;4932833;29;20035;-76
2022/07/06 02:28:25;;;;;;;1.15;1.02;;;17.40;51.60;;;;;;4922269;29;20023;-75
2022/07/06 02:30:51;;;;;;;1.02;0.88;;;17.40;51.60;;;;;;4921998;29;20074;-75
2022/07/06 02:33:17;;;;;;;1.48;0.90;;;17.40;51.70;;;;;;4934510;29;20027;-75
2022/07/06 02:35:43;;;;;;;0.85;0.85;;;17.30;51.60;;;;;;4920022;29;20122;-75
2022/07/06 02:38:10;;;;;;;1.13;0.80;;;17.30;51.70;;;;;;4925292;28;20755;-75
2022/07/06 02:40:38;;;;;;;0.90;0.90;;;17.30;51.80;;;;;;4937670;29;20504;-75
2022/07/06 02:43:04;;;;;;;1.00;1.00;;;17.20;51.60;;;;;;4911049;28;20031;-76
2022/07/06 02:45:31;;;;;;;1.17;1.08;;;17.20;51.70;;;;;;4940569;28;20815;-75
2022/07/06 02:47:57;;;;;;;1.20;1.00;;;17.20;51.80;;;;;;4920997;28;20043;-74
2022/07/06 02:50:24;;;;;;;1.75;1.33;;;17.20;51.90;;;;;;4922048;29;20039;-75
2022/07/06 02:52:51;;;;;;;0.90;0.80;;;17.20;52.00;;;;;;4909664;28;20039;-76
2022/07/06 02:55:17;;;;;;;1.02;0.90;;;17.10;51.80;;;;;;4939366;28;20060;-74
2022/07/06 02:57:43;;;;;;;0.80;0.80;;;17.10;51.90;;;;;;4942396;28;20086;-75
2022/07/06 03:00:11;;;;;;;0.90;0.85;;;17.10;52.00;;;;;;4926461;28;20107;-76
2022/07/06 03:02:38;;;;;;;0.73;0.60;;;17.10;52.00;;;;;;4926482;28;20406;-74
2022/07/06 03:05:05;;;;;;;1.25;0.75;;;17.10;52.10;;;;;;4943317;28;20032;-75
2022/07/06 03:07:31;;;;;;;0.80;0.80;;;17.10;52.10;;;;;;4926838;28;20040;-74
2022/07/06 03:09:58;;;;;;;1.10;0.93;;;17.00;52.00;;;;;;4926075;28;20032;-74
2022/07/06 03:12:25;;;;;;;1.75;0.93;;;17.00;52.00;;;;;;4921607;28;20090;-75
2022/07/06 03:14:51;;;;;;;0.90;0.90;;;17.00;52.10;;;;;;4943526;28;20470;-75
2022/07/06 03:17:17;;;;;;;1.23;1.13;;;17.00;52.20;;;;;;4923737;28;20044;-75
2022/07/06 03:19:45;;;;;;;1.10;1.00;;;17.00;52.30;;;;;;4923916;29;20031;-75
2022/07/06 03:22:10;;;;;;;0.90;0.90;;;17.00;52.30;;;;;;4923592;29;20398;-75
2022/07/06 03:24:36;;;;;;;1.40;0.98;;;16.90;52.20;;;;;;4929475;29;20035;-74
2022/07/06 03:27:03;;;;;;;1.73;1.00;;;16.90;52.20;;;;;;4927568;28;20110;-76
2022/07/06 03:29:29;;;;;;;2.13;0.93;;;16.90;52.90;;;;;;4927956;28;20057;-73
2022/07/06 03:31:55;;;;;;;1.60;0.70;;;16.90;52.30;;;;;;4931571;28;20031;-74
2022/07/06 03:34:22;;;;;;;0.75;0.75;;;16.90;52.40;;;;;;4927192;29;20039;-75
2022/07/06 03:36:48;;;;;;;0.82;0.82;;;16.90;52.40;;;;;;4924460;29;20039;-75
2022/07/06 03:39:15;;;;;;;1.05;0.90;;;16.90;52.50;;;;;;4917936;28;20474;-75
2022/07/06 03:41:41;;;;;;;0.95;0.80;;;16.90;52.60;;;;;;4923011;29;20027;-75
2022/07/06 03:44:09;;;;;;;1.23;1.13;;;16.90;52.60;;;;;;4923962;29;20686;-75
2022/07/06 03:46:35;;;;;;;2.47;1.10;;;16.90;52.60;;;;;;4923630;29;20625;-74
2022/07/06 03:49:02;;;;;;;1.40;0.90;;;16.90;52.60;;;;;;4911378;29;20028;-74
2022/07/06 03:51:28;;;;;;;0.90;0.90;;;16.90;52.70;;;;;;4924227;29;20101;-75
2022/07/06 03:53:54;;;;;;;0.95;0.82;;;16.80;52.50;;;;;;4927116;28;20470;-75
2022/07/06 03:56:30;;;;;;;1.63;1.00;;;16.90;52.80;;;;;;4943668;28;20747;-75
2022/07/06 03:59:15;;;;;;;1.95;0.95;;;16.80;52.70;;;;;;4925817;28;20031;-75
2022/07/06 04:01:41;;;;;;;0.90;0.90;;;16.90;52.90;;;;;;4921162;28;20031;-75
2022/07/06 04:04:10;;;;;;;1.05;0.90;;;16.80;52.80;;;;;;4921772;28;20488;-75
2022/07/06 04:06:40;;;;;;;1.05;0.95;;;16.80;52.80;;;;;;4921357;29;20062;-74
2022/07/06 04:09:06;;;;;;;1.20;1.10;;;16.80;52.90;;;;;;4943012;28;20110;-76
2022/07/06 04:11:33;;;;;;;1.10;0.90;;;16.80;53.00;;;;;;4925240;28;20406;-75
2022/07/06 04:13:59;;;;;;;1.40;1.10;;;16.80;53.00;;;;;;4937691;28;20039;-74
2022/07/06 04:16:25;;;;;;;1.08;0.98;;;16.80;53.10;;;;;;4922518;28;20031;-75
2022/07/06 04:18:51;;;;;;;1.98;1.50;;;16.80;53.20;;;;;;4926936;28;20069;-74
2022/07/06 04:21:18;;;;;;;1.40;0.90;;;16.80;53.20;;;;;;4920022;28;20386;-74
2022/07/06 04:23:44;;;;;;;1.33;0.90;;;16.70;53.10;;;;;;4920091;28;20090;-75
2022/07/06 04:26:11;;;;;;;0.80;0.80;;;16.80;53.30;;;;;;4921492;29;20552;-74
2022/07/06 04:28:38;;;;;;;1.05;0.95;;;16.80;53.40;;;;;;4926359;29;20138;-75
2022/07/06 04:31:04;;;;;;;1.40;0.90;;;16.80;53.50;;;;;;4911928;29;20529;-74
2022/07/06 04:33:30;;;;;;;1.13;0.90;;;16.80;53.50;;;;;;4923361;28;20035;-76
2022/07/06 04:35:57;;;;;;;0.80;0.80;;;16.80;53.50;;;;;;4925943;28;20040;-74
2022/07/06 04:38:28;;;;;;;1.08;0.98;;;16.80;53.50;;;;;;4923617;29;20137;-75
2022/07/06 04:41:01;;;;;;;1.75;1.02;;;16.80;53.50;;;;;;4922637;28;20046;-74
2022/07/06 04:43:27;;;;;;;1.08;1.08;;;16.90;53.60;;;;;;4922774;28;20158;-75
2022/07/06 04:45:53;;;;;;;1.05;0.95;;;16.90;53.70;;;;;;4924320;28;20620;-75
2022/07/06 04:48:19;;;;;;;0.90;0.90;;;16.90;53.60;;;;;;4926510;29;20042;-76
2022/07/06 04:50:45;;;;;;;1.45;0.75;;;17.00;53.90;;;;;;4923521;28;20721;-75
2022/07/06 04:53:17;;;;;;;2.65;1.10;;;17.00;53.90;;;;;;4926264;28;20031;-76
2022/07/06 04:55:43;;;;;;;0.93;0.88;;;17.00;53.80;;;;;;4910147;29;20516;-78
2022/07/06 04:58:09;;;;;;;1.67;0.90;;;17.00;53.80;;;;;;4921466;29;20168;-75
2022/07/06 05:00:35;;;;;;;2.25;1.77;;;17.00;53.90;;;;;;4907920;28;20349;-75
2022/07/06 05:03:02;;;;;;;1.20;1.00;;;17.00;53.90;;;;;;4916247;28;20027;-75
2022/07/06 05:05:28;;;;;;;2.38;0.90;;;17.00;53.90;;;;;;4920367;28;20024;-76
2022/07/06 05:07:54;;;;;;;1.40;1.00;;;17.10;54.10;;;;;;4922007;28;20035;-75
2022/07/06 05:10:20;;;;;;;0.95;0.90;;;17.10;54.10;;;;;;4940989;28;20571;-74
2022/07/06 05:12:50;;;;;;;1.95;0.93;;;17.10;54.10;;;;;;4902285;29;20039;-75
2022/07/06 05:15:16;;;;;;;1.10;0.90;;;17.10;54.10;;;;;;4921424;28;20497;-74
2022/07/06 05:17:42;;;;;;;3.17;1.30;;;17.20;54.20;;;;;;4919567;28;20524;-75
2022/07/06 05:20:09;;;;;;;1.15;0.90;;;17.20;54.20;;;;;;4914208;29;20453;-75
2022/07/06 05:22:38;;;;;;;1.95;1.17;;;17.30;54.40;;;;;;4915812;28;20290;-75
2022/07/06 05:25:05;;;;;;;2.63;1.20;;;17.30;54.30;;;;;;4915264;29;20164;-74
2022/07/06 05:27:31;;;;;;;1.58;1.10;;;17.40;54.50;;;;;;4916566;29;20036;-74
2022/07/06 05:29:57;;;;;;;1.52;1.00;;;17.40;54.40;;;;;;4898729;28;20231;-76
2022/07/06 05:32:22;;;;;;;1.00;0.90;;;17.50;54.50;;;;;;4931647;28;20031;-75
2022/07/06 05:34:50;;;;;;;1.95;0.88;;;17.60;54.60;;;;;;4911751;28;20043;-75
2022/07/06 05:37:16;;;;;;;2.53;1.13;;;17.70;54.70;;;;;;4929933;28;20050;-76
2022/07/06 05:39:45;;;;;;;2.63;1.00;;;17.80;54.60;;;;;;4911444;29;20039;-76
2022/07/06 05:42:11;;;;;;;2.40;1.00;;;17.90;54.50;;;;;;4917778;28;20031;-77
2022/07/06 05:44:38;;;;;;;2.33;1.30;;;18.10;54.80;;;;;;4918857;29;20050;-78
2022/07/06 05:52:34;;;;;;;2.53;1.10;;;18.40;54.70;;;;;;4926893;28;20019;-76
2022/07/06 05:55:00;;;;;;;3.85;0.90;;;18.60;54.80;;;;;;4923592;28;20048;-76
2022/07/06 05:57:26;;;;;;;1.30;1.20;;;18.60;54.60;;;;;;4924408;28;20417;-76
2022/07/06 05:59:52;;;;;;;1.33;1.20;;;18.70;54.70;;;;;;4919499;29;20043;-76
2022/07/06 06:02:19;;;;;;;1.58;1.48;;;18.90;54.90;;;;;;4916314;29;20115;-77
2022/07/06 06:04:45;;;;;;;2.85;1.20;;;19.00;55.00;;;;;;4923192;28;20122;-80
2022/07/06 06:07:11;;;;;;;1.30;1.17;;;19.10;55.00;;;;;;4923989;29;20074;-78
2022/07/06 06:09:37;;;;;;;1.50;1.40;;;19.20;55.00;;;;;;4922079;28;20662;-80
2022/07/06 06:12:03;;;;;;;2.08;1.80;;;19.30;55.10;;;;;;4910978;28;20034;-80
2022/07/06 06:14:30;;;;;;;3.00;1.35;;;19.40;55.10;;;;;;4923271;29;20035;-80
2022/07/06 06:16:56;;;;;;;1.75;1.30;;;19.50;55.10;;;;;;4921909;28;20074;-80
2022/07/06 06:19:22;;;;;;;2.85;1.60;;;19.60;55.20;;;;;;4943213;28;20027;-79
2022/07/06 06:21:47;;;;;;;1.92;1.63;;;19.70;55.20;;;;;;4920678;28;20303;-83
2022/07/06 06:24:13;;;;;;;2.47;1.98;;;19.80;55.30;;;;;;4941308;28;20441;-79
2022/07/06 06:26:40;;;;;;;3.72;2.80;;;19.90;55.50;;;;;;4922220;28;20533;-78
2022/07/06 06:29:05;;;;;;;3.15;2.35;;;20.00;56.20;;;;;;4938152;28;20035;-78
2022/07/06 06:31:31;;;;;;;2.33;2.10;;;20.10;56.70;;;;;;4940908;28;20449;-92
2022/07/06 06:33:57;;;;;;;2.63;2.42;;;20.20;57.00;;;;;;4940701;28;20035;-83
2022/07/06 06:36:23;;;;;;;2.88;2.63;;;20.30;57.20;;;;;;4919666;29;20122;-84
2022/07/06 06:38:49;;;;;;;2.97;2.67;;;20.40;57.30;;;;;;4941084;28;20038;-83
2022/07/06 06:41:15;;;;;;;3.45;3.13;;;20.60;58.10;;;;;;4920902;29;20035;-81
2022/07/06 06:43:41;;;;;;;3.35;2.80;;;20.70;57.60;;;;;;4920957;29;20044;-83
2022/07/06 06:46:19;;;;;;;3.28;2.80;;;20.80;57.80;;;;;;4919460;29;20036;-82
2022/07/06 06:48:45;;;;;;;3.35;2.45;;;20.90;57.80;;;;;;4918084;29;20032;-79
2022/07/06 06:51:11;;;;;;;3.25;2.85;;;20.90;57.80;;;;;;4919027;29;20193;-79
2022/07/06 06:53:36;;;;;;;3.72;3.17;;;21.00;58.00;;;;;;4919449;29;20561;-81
2022/07/06 06:56:20;;;;;;;4.03;2.75;;;21.10;58.20;;;;;;4919277;29;20390;-85
2022/07/06 06:58:46;;;;;;;6.47;3.40;;;21.20;58.40;;;;;;4921722;29;20028;-86
2022/07/06 07:01:12;;;;;;;4.15;3.03;;;21.30;58.60;;;;;;4918369;29;20586;-82
2022/07/06 07:03:38;;;;;;;3.65;3.30;;;21.40;58.70;;;;;;4921164;29;20495;-82
2022/07/06 07:06:04;;;;;;;3.80;3.50;;;21.50;58.80;;;;;;4919679;29;20301;-82
2022/07/06 07:08:29;;;;;;;4.03;3.50;;;21.60;58.90;;;;;;4941392;28;20042;-83
2022/07/06 07:10:55;;;;;;;4.57;3.38;;;21.60;58.70;;;;;;4916937;29;20032;-80
2022/07/06 07:13:21;;;;;;;3.65;3.30;;;21.70;58.90;;;;;;4918191;29;20538;-83
2022/07/06 07:15:47;;;;;;;4.18;3.35;;;21.70;58.90;;;;;;4925737;29;20068;-84
2022/07/06 07:18:13;;;;;;;4.75;3.45;;;21.80;59.00;;;;;;4916851;29;20063;-80
2022/07/06 07:20:39;;;;;;;3.08;2.80;;;22.00;59.30;;;;;;4920010;29;20454;-80
2022/07/06 07:23:05;;;;;;;6.35;2.70;;;22.10;59.30;;;;;;4922696;29;20383;-89
2022/07/06 07:25:32;;;;;;;3.78;2.55;;;22.20;59.20;;;;;;4920025;29;20036;-82
2022/07/06 07:27:58;;;;;;;2.58;2.38;;;22.30;59.20;;;;;;4920532;29;20494;-77
2022/07/06 07:30:24;;;;;;;3.03;2.70;;;22.40;59.30;;;;;;4922437;29;20086;-86
2022/07/06 07:32:50;;;;;;;5.07;2.63;;;22.40;59.40;;;;;;4923182;29;20111;-86
2022/07/06 07:35:15;;;;;;;3.75;2.33;;;22.50;59.70;;;;;;4930596;29;20103;-81
2022/07/06 07:37:41;;;;;;;3.75;2.35;;;22.80;60.00;;;;;;4923676;29;20043;-82
2022/07/06 07:40:08;;;;;;;3.75;2.15;;;23.30;60.20;;;;;;4918055;29;20032;-83
2022/07/06 07:42:35;;;;;;;3.08;2.20;;;23.70;59.90;;;;;;4927852;29;20059;-84
2022/07/06 07:45:01;;;;;;;1.88;1.70;;;23.90;59.40;;;;;;4936496;28;20050;-81
2022/07/06 07:47:27;;;;;;;1.80;1.70;;;24.10;59.20;;;;;;4946622;28;20083;-82
2022/07/06 07:49:53;;;;;;;2.67;1.98;;;24.20;59.00;;;;;;4950038;28;20495;-81
2022/07/06 07:52:18;;;;;;;3.88;1.90;;;24.20;58.70;;;;;;4924796;29;20031;-83
2022/07/06 07:54:44;;;;;;;2.85;1.90;;;24.30;58.80;;;;;;4950869;28;20023;-84
2022/07/06 07:57:10;;;;;;;2.35;1.35;;;24.30;58.50;;;;;;4951803;28;20050;-84
2022/07/06 07:59:36;;;;;;;1.70;1.48;;;24.30;58.50;;;;;;4958185;28;20078;-84
2022/07/06 08:02:02;;;;;;;3.10;2.03;;;24.20;58.20;;;;;;4936908;29;20047;-83
2022/07/06 08:04:28;;;;;;;2.50;1.40;;;24.20;58.20;;;;;;4954635;28;20034;-85
2022/07/06 08:06:54;;;;;;;2.65;1.70;;;24.20;58.20;;;;;;4933195;28;20032;-85
2022/07/06 08:09:20;;;;;;;2.42;1.50;;;24.20;58.10;;;;;;4955723;28;20120;-79
2022/07/06 08:11:46;;;;;;;4.85;2.30;;;24.20;58.00;;;;;;4948995;28;20035;-80
2022/07/06 08:14:14;;;;;;;2.67;1.90;;;24.30;58.00;;;;;;4937651;29;20035;-78
2022/07/06 08:16:40;;;;;;;3.63;1.88;;;24.50;58.30;;;;;;4914554;29;20050;-79
2022/07/06 08:19:06;;;;;;;2.08;1.60;;;24.70;58.30;;;;;;4952228;28;20398;-80
2022/07/06 08:21:32;;;;;;;6.55;1.90;;;24.90;58.40;;;;;;4944969;28;20031;-81
2022/07/06 08:24:00;;;;;;;1.90;1.38;;;25.10;58.30;;;;;;4949968;28;20027;-78
2022/07/06 08:26:26;;;;;;;2.60;1.70;;;25.20;57.90;;;;;;4952701;28;20031;-79
2022/07/06 08:28:52;;;;;;;2.33;1.27;;;25.30;57.70;;;;;;4942681;28;20172;-79
2022/07/06 08:31:18;;;;;;;3.50;1.65;;;25.50;57.50;;;;;;4938780;28;20103;-78
2022/07/06 08:33:44;;;;;;;2.13;1.60;;;25.60;57.20;;;;;;4924378;29;20123;-79
2022/07/06 08:36:10;;;;;;;3.15;1.42;;;25.70;57.00;;;;;;4946869;28;20174;-80
2022/07/06 08:38:36;;;;;;;1.83;1.30;;;25.80;56.70;;;;;;4940724;28;20036;-77
2022/07/06 08:41:05;;;;;;;3.33;1.85;;;25.80;56.70;;;;;;4931998;29;20179;-76
2022/07/06 08:43:32;;;;;;;2.13;1.30;;;26.00;56.60;;;;;;4942415;28;20824;-77
2022/07/06 08:45:59;;;;;;;7.28;2.25;;;26.30;56.30;;;;;;4949825;28;20431;-76
2022/07/06 08:48:27;;;;;;;2.55;1.10;;;26.60;55.80;;;;;;4918725;28;20034;-77
2022/07/06 08:50:54;;;;;;;1.67;1.17;;;27.00;55.30;;;;;;4933179;29;20035;-75
2022/07/06 08:53:21;;;;;;;3.72;1.38;;;27.30;54.70;;;;;;4944348;28;20168;-77
2022/07/06 08:55:50;;;;;;;1.70;1.55;;;27.70;54.10;;;;;;4946223;28;20043;-77
2022/07/06 08:58:16;;;;;;;2.80;1.13;;;28.10;53.50;;;;;;4923051;28;20037;-78
2022/07/06 09:00:42;;;;;;;1.48;1.10;;;28.50;52.90;;;;;;4930423;29;20457;-80
2022/07/06 09:03:12;;;;;;;1.90;1.13;;;28.80;52.30;;;;;;4945751;28;20123;-77
2022/07/06 09:05:40;;;;;;;2.20;1.27;;;29.10;51.80;;;;;;4928165;29;20049;-77
2022/07/06 09:08:06;;;;;;;4.70;1.40;;;29.30;51.40;;;;;;4920738;29;20036;-78
2022/07/06 09:10:32;;;;;;;1.58;1.30;;;29.60;51.10;;;;;;4937324;28;20110;-77
2022/07/06 09:13:06;;;;;;;2.63;1.20;;;29.70;50.70;;;;;;4930080;29;20058;-81
2022/07/06 09:15:34;;;;;;;2.28;1.27;;;29.90;50.20;;;;;;4946052;28;20037;-81
2022/07/06 09:18:01;;;;;;;2.05;1.13;;;30.20;49.90;;;;;;4950784;29;20506;-81
2022/07/06 09:20:27;;;;;;;1.95;1.08;;;30.30;49.50;;;;;;4935776;28;20031;-76
2022/07/06 09:23:01;;;;;;;1.17;1.08;;;30.50;49.20;;;;;;4946622;28;20492;-77
2022/07/06 09:25:27;;;;;;;1.00;0.90;;;30.60;48.90;;;;;;4912627;29;20290;-77
2022/07/06 09:27:54;;;;;;;2.38;1.10;;;30.60;48.80;;;;;;4942716;28;20057;-79
2022/07/06 09:30:22;;;;;;;2.00;1.20;;;30.70;48.70;;;;;;4938770;28;20038;-78
2022/07/06 09:32:50;;;;;;;0.85;0.70;;;30.70;48.50;;;;;;4928613;29;20035;-76
2022/07/06 09:35:20;;;;;;;1.67;1.35;;;30.80;48.50;;;;;;4938154;28;20122;-79
2022/07/06 09:38:19;;;;;;;0.82;0.80;;;30.90;48.20;;;;;;4929612;29;20050;-77
2022/07/06 09:40:45;;;;;;;0.77;0.73;;;31.20;47.90;;;;;;4914822;29;20083;-77
2022/07/06 09:43:22;;;;;;;1.00;0.77;;;31.40;47.60;;;;;;4943702;28;20547;-76
2022/07/06 09:45:56;;;;;;;1.20;0.95;;;31.60;47.10;;;;;;4936590;28;20051;-75
2022/07/06 09:48:27;;;;;;;1.40;1.20;;;31.70;46.90;;;;;;4923981;29;20035;-78
2022/07/06 09:51:03;;;;;;;1.35;0.90;;;31.70;46.90;;;;;;4938340;29;20030;-75
2022/07/06 09:53:29;;;;;;;1.23;1.13;;;31.60;46.80;;;;;;4942565;28;20035;-76
2022/07/06 09:55:57;;;;;;;2.92;1.30;;;31.60;47.50;;;;;;4929085;28;20042;-78
2022/07/06 09:58:24;;;;;;;1.77;1.08;;;31.60;47.00;;;;;;4927582;29;20094;-78
2022/07/06 10:00:51;;;;;;;1.48;1.02;;;31.60;47.00;;;;;;4940051;28;20011;-78
2022/07/06 10:03:17;;;;;;;1.50;1.00;;;31.70;46.80;;;;;;4910531;29;20134;-75
2022/07/06 10:05:47;;;;;;;1.45;1.10;;;31.90;46.60;;;;;;4935532;28;20035;-77
2022/07/06 10:08:14;;;;;;;1.17;0.90;;;32.00;46.40;;;;;;4924113;28;20035;-76
2022/07/06 10:10:41;;;;;;;2.47;1.20;;;32.00;46.30;;;;;;4938254;29;20507;-77
2022/07/06 10:13:08;;;;;;;1.30;1.20;;;31.90;46.30;;;;;;4941821;28;20032;-75
2022/07/06 10:15:36;;;;;;;1.38;1.08;;;31.80;46.30;;;;;;4919933;29;20019;-79
2022/07/06 10:18:05;;;;;;;1.80;1.00;;;31.70;46.40;;;;;;4929441;29;20050;-77
2022/07/06 10:20:33;;;;;;;2.50;1.30;;;31.70;46.40;;;;;;4946107;28;20034;-78
2022/07/06 10:23:02;;;;;;;1.00;0.95;;;31.60;46.40;;;;;;4938560;28;20595;-74
2022/07/06 10:25:28;;;;;;;2.10;1.23;;;31.60;46.50;;;;;;4933315;28;20035;-76
2022/07/06 10:27:55;;;;;;;1.52;1.13;;;31.50;46.50;;;;;;4939292;28;20061;-78
2022/07/06 10:30:22;;;;;;;0.98;0.88;;;31.50;46.50;;;;;;4928720;28;20109;-76
2022/07/06 10:32:50;;;;;;;2.45;1.30;;;31.50;46.40;;;;;;4935827;28;20035;-77
2022/07/06 10:35:19;;;;;;;2.63;2.40;;;31.50;46.40;;;;;;4935562;28;20040;-76
2022/07/06 10:37:45;;;;;;;1.65;1.40;;;31.70;46.30;;;;;;4940222;28;20031;-76
2022/07/06 10:43:20;;;;;;;2.17;1.70;;;32.20;45.60;;;;;;4938528;28;20105;-76
2022/07/06 10:45:46;;;;;;;1.95;1.52;;;32.50;45.40;;;;;;4921887;28;20040;-75
2022/07/06 10:48:11;;;;;;;1.30;1.20;;;32.60;45.00;;;;;;4909797;28;20090;-77
2022/07/06 10:50:46;;;;;;;2.00;1.13;;;32.70;44.90;;;;;;4934028;28;20271;-76
2022/07/06 10:53:14;;;;;;;1.35;0.88;;;32.90;44.60;;;;;;4933967;28;20434;-79
2022/07/06 10:55:47;;;;;;;1.50;1.13;;;33.20;44.20;;;;;;4936199;28;20046;-78
2022/07/06 10:58:14;;;;;;;1.20;0.82;;;33.40;43.80;;;;;;4931408;28;20603;-77
2022/07/06 11:00:54;;;;;;;0.93;0.90;;;33.70;43.50;;;;;;4919267;29;20034;-77
2022/07/06 11:03:40;;;;;;;1.52;1.13;;;33.90;42.80;;;;;;4913905;29;20087;-77
2022/07/06 11:06:09;;;;;;;0.85;0.70;;;33.90;42.70;;;;;;4940217;28;20039;-76
2022/07/06 11:08:48;;;;;;;1.50;0.80;;;33.70;42.90;;;;;;4937062;28;20189;-78
2022/07/06 11:11:16;;;;;;;0.93;0.80;;;33.40;42.80;;;;;;4937554;28;20655;-77
2022/07/06 11:13:50;;;;;;;0.88;0.60;;;33.30;43.30;;;;;;4920667;28;20035;-76
2022/07/06 11:16:17;;;;;;;1.52;0.90;;;33.10;43.30;;;;;;4938094;28;20039;-76
2022/07/06 11:19:00;;;;;;;1.95;1.20;;;33.00;43.40;;;;;;4935342;28;20077;-79
2022/07/06 11:21:40;;;;;;;1.08;0.90;;;33.10;43.20;;;;;;4919437;29;20508;-78
2022/07/06 11:24:08;;;;;;;2.58;0.70;;;33.40;43.10;;;;;;4910500;28;20062;-77
2022/07/06 11:26:36;;;;;;;2.80;1.30;;;33.60;42.80;;;;;;4921293;29;20054;-75
2022/07/06 11:29:06;;;;;;;2.33;0.82;;;33.80;42.10;;;;;;4939921;28;20027;-78
2022/07/06 11:31:39;;;;;;;3.08;0.90;;;33.70;41.40;;;;;;4931832;28;20031;-77
2022/07/06 11:34:07;;;;;;;1.38;0.77;;;33.50;41.10;;;;;;4943120;28;20038;-78
2022/07/06 11:36:34;;;;;;;0.93;0.50;;;33.40;41.00;;;;;;4936018;28;20360;-76
2022/07/06 11:39:00;;;;;;;1.10;0.93;;;33.30;40.90;;;;;;4916991;28;20122;-77
2022/07/06 11:41:26;;;;;;;2.13;0.80;;;33.20;40.80;;;;;;4938691;28;20555;-78
2022/07/06 11:43:52;;;;;;;1.17;0.60;;;33.00;40.70;;;;;;4921043;29;20055;-77
2022/07/06 11:46:27;;;;;;;1.23;0.70;;;32.90;40.60;;;;;;4922300;29;20034;-78
2022/07/06 11:48:58;;;;;;;2.90;0.70;;;32.90;40.50;;;;;;4942816;28;20039;-79
2022/07/06 11:51:26;;;;;;;1.83;0.70;;;32.80;40.60;;;;;;4936230;28;20031;-75
2022/07/06 11:53:54;;;;;;;4.13;1.10;;;32.50;40.70;;;;;;4912933;28;20513;-76
2022/07/06 11:56:27;;;;;;;2.03;1.20;;;32.30;41.10;;;;;;4937024;28;20036;-79
2022/07/06 11:58:59;;;;;;;1.73;0.90;;;32.20;41.40;;;;;;4921270;28;20518;-79
2022/07/06 12:01:30;;;;;;;2.35;1.13;;;32.10;41.50;;;;;;4908794;29;20118;-78
2022/07/06 12:04:03;;;;;;;1.83;1.10;;;32.00;41.60;;;;;;4940269;28;20023;-79
2022/07/06 12:06:30;;;;;;;4.63;1.45;;;31.90;41.70;;;;;;4911835;28;20028;-74
2022/07/06 12:08:58;;;;;;;1.65;1.15;;;31.90;41.90;;;;;;4919964;28;20501;-78
2022/07/06 12:11:29;;;;;;;1.60;1.13;;;31.90;42.00;;;;;;4919848;28;20031;-78
2022/07/06 12:13:57;;;;;;;3.13;0.95;;;31.90;42.00;;;;;;4938863;28;20039;-79
2022/07/06 12:16:34;;;;;;;2.42;0.70;;;31.90;42.10;;;;;;4945862;28;20699;-75
2022/07/06 12:19:02;;;;;;;3.28;1.35;;;31.90;42.10;;;;;;4929212;28;20473;-78
2022/07/06 12:21:28;;;;;;;6.43;1.33;;;31.80;42.00;;;;;;4935450;28;20414;-79
2022/07/06 12:23:56;;;;;;;1.90;1.10;;;31.80;42.10;;;;;;4944893;28;20028;-79
2022/07/06 12:26:25;;;;;;;3.50;1.25;;;31.70;42.10;;;;;;4933533;28;20028;-77
2022/07/06 12:29:01;;;;;;;1.73;0.90;;;31.70;42.20;;;;;;4936868;28;20493;-78
2022/07/06 12:31:36;;;;;;;5.97;1.25;;;31.70;42.30;;;;;;4926289;29;20071;-78
2022/07/06 12:34:03;;;;;;;2.83;1.05;;;31.70;42.30;;;;;;4917842;28;20028;-76
2022/07/06 12:36:29;;;;;;;2.88;1.20;;;31.70;42.30;;;;;;4941491;28;20050;-76
2022/07/06 12:38:55;;;;;;;3.55;1.40;;;31.70;42.30;;;;;;4936878;28;20032;-76
2022/07/06 12:41:30;;;;;;;2.17;1.23;;;31.70;42.40;;;;;;4935873;28;20413;-76
2022/07/06 12:44:09;;;;;;;3.80;1.30;;;31.70;42.40;;;;;;4936033;28;20058;-76
2022/07/06 12:46:36;;;;;;;4.65;1.70;;;31.70;42.40;;;;;;4919875;29;20090;-76
2022/07/06 12:49:12;;;;;;;2.15;1.33;;;31.70;42.50;;;;;;4935303;28;20020;-77
2022/07/06 12:51:54;;;;;;;3.45;1.02;;;31.70;42.50;;;;;;4939082;28;20024;-75
2022/07/06 12:54:21;;;;;;;3.83;1.30;;;31.80;42.60;;;;;;4923478;29;20067;-82
2022/07/06 12:57:00;;;;;;;2.03;0.70;;;31.80;42.60;;;;;;4930486;28;20299;-79
2022/07/06 12:59:27;;;;;;;2.80;1.02;;;31.90;42.40;;;;;;4939373;28;20042;-77